createdAt,value
2022-08-22T00:00:20.999Z,4.38
2022-08-22T00:05:48.235Z,4.10
2022-08-22T00:08:20.646Z,3.95
2022-08-22T00:10:54.095Z,4.57
2022-08-22T00:13:25.291Z,4.38
2022-08-22T00:15:56.381Z,3.70
2022-08-22T00:18:28.796Z,3.33
2022-08-22T00:21:04.230Z,4.20
2022-08-22T00:23:37.147Z,3.35
2022-08-22T00:26:08.239Z,4.40
2022-08-22T00:28:38.967Z,4.65
2022-08-22T00:31:10.367Z,4.72
2022-08-22T00:33:42.739Z,4.88
2022-08-22T00:36:20.999Z,4.38
2022-08-22T00:38:53.503Z,5.57
2022-08-22T00:41:36.197Z,4.78
2022-08-22T00:44:19.171Z,4.72
2022-08-22T00:47:13.053Z,4.93
2022-08-22T00:50:04.740Z,3.97
2022-08-22T00:52:48.920Z,4.82
2022-08-22T00:55:28.011Z,5.07
2022-08-22T00:58:07.786Z,4.07
2022-08-22T01:00:40.733Z,4.78
2022-08-22T01:03:20.004Z,3.58
2022-08-22T01:05:54.251Z,3.88
2022-08-22T01:08:27.305Z,4.82
2022-08-22T01:13:32.286Z,4.18
2022-08-22T01:16:08.059Z,4.00
2022-08-22T01:18:51.111Z,4.28
2022-08-22T01:21:42.553Z,4.20
2022-08-22T01:24:22.295Z,4.32
2022-08-22T01:27:16.162Z,4.60
2022-08-22T01:30:01.144Z,4.00
2022-08-22T01:32:56.922Z,4.15
2022-08-22T01:35:30.903Z,4.63
2022-08-22T01:38:19.433Z,4.32
2022-08-22T01:41:14.553Z,4.18
2022-08-22T01:43:59.858Z,3.75
2022-08-22T01:46:35.050Z,5.28
2022-08-22T01:49:08.330Z,4.80
2022-08-22T01:51:41.665Z,5.10
2022-08-22T01:54:12.419Z,4.50
2022-08-22T01:56:42.724Z,5.00
2022-08-22T01:59:12.630Z,4.70
2022-08-22T02:01:48.809Z,4.68
2022-08-22T02:04:19.503Z,4.32
2022-08-22T02:06:53.770Z,4.97
2022-08-22T02:09:27.409Z,5.47
2022-08-22T02:11:57.109Z,4.50
2022-08-22T02:14:30.645Z,4.85
2022-08-22T02:17:09.564Z,5.28
2022-08-22T02:19:40.807Z,4.82
2022-08-22T02:22:21.628Z,5.10
2022-08-22T02:25:00.419Z,5.10
2022-08-22T02:27:33.953Z,5.25
2022-08-22T02:30:04.868Z,5.97
2022-08-22T02:32:37.513Z,5.32
2022-08-22T02:35:08.598Z,5.20
2022-08-22T02:43:24.996Z,5.45
2022-08-22T04:03:31.952Z,5.93
2022-08-22T04:06:18.017Z,5.13
2022-08-22T04:09:16.260Z,6.05
2022-08-22T04:11:51.927Z,6.25
2022-08-22T04:14:25.015Z,6.03
2022-08-22T04:19:41.315Z,7.45
2022-08-22T04:22:24.184Z,6.00
2022-08-22T04:24:54.810Z,5.82
2022-08-22T04:27:26.006Z,6.55
2022-08-22T04:29:56.251Z,5.07
2022-08-22T04:32:27.067Z,6.05
2022-08-22T04:34:58.075Z,5.75
2022-08-22T04:37:32.449Z,6.55
2022-08-22T04:40:03.929Z,6.10
2022-08-22T04:42:34.269Z,6.93
2022-08-22T04:45:04.114Z,7.22
2022-08-22T04:47:34.687Z,6.50
2022-08-22T04:50:04.658Z,7.72
2022-08-22T04:52:37.446Z,7.40
2022-08-22T04:55:09.393Z,6.68
2022-08-22T04:57:42.559Z,6.97
2022-08-22T05:00:11.677Z,7.25
2022-08-22T05:02:41.162Z,7.90
2022-08-22T05:05:13.551Z,7.07
2022-08-22T05:07:45.270Z,7.55
2022-08-22T05:10:14.777Z,7.18
2022-08-22T05:12:45.357Z,7.60
2022-08-22T05:15:22.938Z,7.70
2022-08-22T05:17:52.929Z,7.45
2022-08-22T05:20:22.816Z,7.32
2022-08-22T05:22:53.073Z,8.63
2022-08-22T05:25:22.183Z,8.38
2022-08-22T05:27:56.960Z,7.93
2022-08-22T05:30:26.157Z,8.25
2022-08-22T05:32:56.536Z,6.75
2022-08-22T05:35:34.112Z,8.15
2022-08-22T05:38:04.482Z,6.20
2022-08-22T05:40:34.387Z,6.30
2022-08-22T05:43:07.131Z,7.07
2022-08-22T05:45:35.296Z,6.15
2022-08-22T05:48:04.343Z,6.28
2022-08-22T05:50:35.741Z,5.55
2022-08-22T05:53:07.219Z,6.10
2022-08-22T05:55:40.563Z,5.55
2022-08-22T05:58:28.576Z,5.72
2022-08-22T06:01:00.692Z,5.88
2022-08-22T06:03:32.248Z,5.53
2022-08-22T06:06:03.337Z,5.97
2022-08-22T06:08:34.595Z,6.47
2022-08-22T06:11:04.845Z,7.07
2022-08-22T06:13:34.727Z,6.30
2022-08-22T06:16:07.529Z,7.20
2022-08-22T06:18:38.861Z,6.85
2022-08-22T06:21:08.819Z,7.03
2022-08-22T06:23:39.436Z,6.18
2022-08-22T06:26:20.645Z,6.53
2022-08-22T06:28:54.517Z,6.18
2022-08-22T06:31:24.725Z,6.32
2022-08-22T06:33:56.683Z,7.30
2022-08-22T06:36:31.768Z,5.78
2022-08-22T06:39:16.058Z,7.50
2022-08-22T06:41:46.471Z,7.55
2022-08-22T06:44:16.185Z,7.05
2022-08-22T06:46:44.823Z,6.50
2022-08-22T06:49:12.900Z,6.40
2022-08-22T06:51:40.838Z,6.40
2022-08-22T06:54:12.728Z,7.05
2022-08-22T06:56:43.503Z,6.30
2022-08-22T06:59:13.729Z,6.10
2022-08-22T07:01:44.929Z,6.57
2022-08-22T07:04:12.819Z,6.25
2022-08-22T07:06:45.323Z,6.53
2022-08-22T07:09:19.938Z,6.43
2022-08-22T07:11:49.373Z,6.25
2022-08-22T07:14:18.620Z,6.10
2022-08-22T07:16:49.793Z,6.07
2022-08-22T07:19:23.987Z,6.60
2022-08-22T07:21:52.162Z,6.55
2022-08-22T07:24:22.090Z,6.53
2022-08-22T07:26:55.692Z,6.13
2022-08-22T07:29:29.171Z,6.85
2022-08-22T07:32:00.530Z,6.07
2022-08-22T07:34:33.373Z,6.65
2022-08-22T07:37:05.711Z,6.32
2022-08-22T07:39:37.028Z,6.05
2022-08-22T07:42:10.030Z,6.78
2022-08-22T07:44:42.372Z,5.43
2022-08-22T07:47:13.565Z,5.70
2022-08-22T07:49:49.592Z,5.07
2022-08-22T07:52:18.543Z,4.88
2022-08-22T07:54:49.120Z,5.72
2022-08-22T07:57:22.803Z,5.30
2022-08-22T07:59:52.951Z,6.03
2022-08-22T08:02:21.603Z,5.78
2022-08-22T08:04:50.742Z,4.75
2022-08-22T08:07:19.294Z,4.55
2022-08-22T08:09:48.047Z,5.20
2022-08-22T08:12:16.932Z,6.25
2022-08-22T08:14:46.539Z,5.25
2022-08-22T08:17:17.577Z,5.80
2022-08-22T08:19:47.214Z,5.40
2022-08-22T08:22:17.301Z,4.90
2022-08-22T08:24:45.816Z,4.25
2022-08-22T08:27:33.401Z,4.50
2022-08-22T08:30:05.118Z,4.05
2022-08-22T08:32:34.772Z,4.90
2022-08-22T08:35:04.451Z,4.85
2022-08-22T08:37:36.692Z,4.60
2022-08-22T08:40:09.344Z,4.15
2022-08-22T08:42:58.669Z,3.85
2022-08-22T08:45:35.677Z,4.13
2022-08-22T08:48:18.218Z,4.22
2022-08-22T08:50:52.930Z,3.55
2022-08-22T08:53:43.497Z,4.03
2022-08-22T08:56:19.809Z,4.25
2022-08-22T08:58:51.481Z,4.63
2022-08-22T09:01:29.154Z,4.72
2022-08-22T09:04:17.901Z,3.75
2022-08-22T09:06:56.694Z,4.10
2022-08-22T09:09:37.332Z,4.25
2022-08-22T09:12:16.465Z,4.05
2022-08-22T09:14:53.347Z,3.97
2022-08-22T09:17:32.123Z,3.95
2022-08-22T09:20:19.422Z,4.80
2022-08-22T09:23:00.143Z,4.30
2022-08-22T09:25:38.625Z,4.40
2022-08-22T09:28:13.807Z,4.05
2022-08-22T09:30:58.926Z,3.53
2022-08-22T09:33:34.536Z,3.20
2022-08-22T09:36:05.607Z,4.40
2022-08-22T09:38:37.966Z,3.67
2022-08-22T09:41:14.445Z,3.53
2022-08-22T09:43:48.542Z,3.10
2022-08-22T09:46:19.510Z,3.00
2022-08-22T09:48:55.149Z,2.70
2022-08-22T09:51:33.178Z,2.50
2022-08-22T09:54:20.672Z,3.10
2022-08-22T09:56:53.989Z,2.63
2022-08-22T09:59:23.753Z,2.20
2022-08-22T10:02:15.808Z,3.13
2022-08-22T10:04:47.958Z,2.33
2022-08-22T10:07:29.307Z,2.77
2022-08-22T10:10:01.993Z,2.75
2022-08-22T10:12:36.231Z,3.05
2022-08-22T10:15:08.805Z,3.58
2022-08-22T10:17:41.060Z,2.15
2022-08-22T10:20:15.779Z,3.00
2022-08-22T10:22:47.598Z,2.17
2022-08-22T10:25:23.929Z,1.90
2022-08-22T10:27:57.726Z,1.70
2022-08-22T10:30:27.769Z,2.00
2022-08-22T10:33:01.515Z,1.85
2022-08-22T10:35:33.760Z,2.08
2022-08-22T10:38:05.757Z,2.08
2022-08-22T10:40:36.097Z,2.35
2022-08-22T10:43:09.539Z,2.30
2022-08-22T10:45:39.194Z,1.90
2022-08-22T10:48:31.539Z,2.30
2022-08-22T10:51:08.852Z,2.80
2022-08-22T10:53:46.152Z,2.00
2022-08-22T10:56:17.038Z,2.55
2022-08-22T10:58:54.895Z,1.67
2022-08-22T11:01:38.368Z,1.92
2022-08-22T11:04:12.427Z,2.35
2022-08-22T11:06:45.783Z,2.47
2022-08-22T11:09:22.760Z,2.00
2022-08-22T11:11:56.749Z,2.15
2022-08-22T11:14:32.460Z,1.63
2022-08-22T11:17:12.078Z,1.88
2022-08-22T11:20:02.834Z,2.17
2022-08-22T11:22:34.761Z,1.58
2022-08-22T11:25:11.270Z,2.05
2022-08-22T11:27:43.928Z,1.95
2022-08-22T11:30:18.686Z,2.05
2022-08-22T11:33:10.209Z,2.08
2022-08-22T11:35:39.384Z,1.88
2022-08-22T11:38:11.944Z,2.10
2022-08-22T11:40:43.918Z,2.35
2022-08-22T11:43:21.186Z,2.55
2022-08-22T11:45:50.655Z,2.03
2022-08-22T11:48:22.071Z,2.65
2022-08-22T11:50:52.438Z,2.65
2022-08-22T11:53:26.147Z,2.35
2022-08-22T11:56:05.602Z,2.15
2022-08-22T11:58:41.337Z,2.80
2022-08-22T12:01:17.208Z,2.70
2022-08-22T12:03:58.623Z,3.03
2022-08-22T12:06:36.506Z,2.80
2022-08-22T12:09:25.318Z,2.78
2022-08-22T12:12:11.718Z,2.67
2022-08-22T12:14:42.790Z,2.90
2022-08-22T12:17:28.577Z,2.63
2022-08-22T12:20:16.742Z,2.83
2022-08-22T12:23:01.029Z,2.58
2022-08-22T12:25:44.601Z,3.25
2022-08-22T12:28:20.428Z,2.80
2022-08-22T12:30:54.914Z,2.88
2022-08-22T12:33:36.727Z,2.85
2022-08-22T12:36:09.513Z,2.25
2022-08-22T12:38:54.039Z,2.65
2022-08-22T12:41:38.966Z,3.30
2022-08-22T12:44:18.090Z,3.33
2022-08-22T12:46:53.327Z,2.47
2022-08-22T12:49:28.087Z,3.00
2022-08-22T12:52:04.334Z,2.55
2022-08-22T12:54:54.152Z,2.65
2022-08-22T12:57:27.302Z,2.88
2022-08-22T12:59:58.169Z,2.53
2022-08-22T13:02:28.694Z,2.55
2022-08-22T13:05:00.551Z,2.95
2022-08-22T13:07:30.245Z,2.63
2022-08-22T13:10:00.813Z,2.47
2022-08-22T13:12:35.102Z,3.00
2022-08-22T13:15:06.483Z,2.40
2022-08-22T13:17:38.818Z,2.35
2022-08-22T13:20:10.785Z,2.22
2022-08-22T13:22:40.965Z,2.83
2022-08-22T13:25:25.489Z,2.28
2022-08-22T13:27:56.376Z,2.90
2022-08-22T13:32:57.455Z,2.90
2022-08-22T13:37:58.299Z,2.45
2022-08-22T13:40:27.872Z,2.53
2022-08-22T13:43:03.035Z,2.40
2022-08-22T13:45:31.235Z,2.60
2022-08-22T13:48:03.634Z,2.40
2022-08-22T13:50:52.911Z,2.00
2022-08-22T13:53:24.470Z,2.58
2022-08-22T13:55:56.253Z,2.50
2022-08-22T13:58:31.008Z,2.53
2022-08-22T14:01:14.614Z,2.40
2022-08-22T14:06:35.321Z,3.25
2022-08-22T14:09:08.308Z,2.38
2022-08-22T14:11:39.176Z,2.05
2022-08-22T14:14:08.773Z,2.80
2022-08-22T14:16:39.430Z,2.25
2022-08-22T14:19:11.715Z,2.45
2022-08-22T14:21:43.449Z,2.08
2022-08-22T14:24:17.110Z,2.08
2022-08-22T14:26:57.938Z,2.30
2022-08-22T14:29:31.902Z,3.08
2022-08-22T14:32:01.616Z,2.22
2022-08-22T14:34:30.760Z,2.25
2022-08-22T14:37:01.149Z,2.17
2022-08-22T14:39:31.306Z,1.85
2022-08-22T14:42:09.924Z,2.30
2022-08-22T14:44:43.105Z,2.13
2022-08-22T14:47:54.130Z,2.00
2022-08-22T14:50:09.555Z,2.22
2022-08-22T14:52:40.789Z,2.70
2022-08-22T14:55:19.218Z,3.45
2022-08-22T14:57:49.840Z,2.50
2022-08-22T15:00:28.607Z,1.98
2022-08-22T15:03:06.588Z,2.42
2022-08-22T15:05:45.062Z,2.40
2022-08-22T15:08:21.234Z,2.28
2022-08-22T15:11:05.443Z,2.33
2022-08-22T15:13:35.923Z,2.70
2022-08-22T15:16:16.038Z,1.90
2022-08-22T15:18:51.903Z,2.10
2022-08-22T15:21:24.448Z,1.98
2022-08-22T15:23:53.991Z,1.70
2022-08-22T15:26:28.182Z,2.25
2022-08-22T15:28:58.163Z,2.83
2022-08-22T15:31:27.768Z,2.15
2022-08-22T15:34:05.874Z,2.25
2022-08-22T15:36:33.785Z,2.15
2022-08-22T15:39:17.902Z,2.30
2022-08-22T15:41:46.429Z,2.20
2022-08-22T15:44:32.712Z,2.60
2022-08-22T15:47:05.847Z,2.35
2022-08-22T15:49:48.384Z,8.35
2022-08-22T15:52:23.607Z,2.90
2022-08-22T15:55:15.614Z,2.70
2022-08-22T15:57:49.295Z,1.67
2022-08-22T16:00:28.025Z,1.92
2022-08-22T16:02:58.739Z,1.88
2022-08-22T16:05:37.645Z,2.17
2022-08-22T16:08:07.436Z,2.42
2022-08-22T16:10:39.021Z,2.67
2022-08-22T16:13:12.613Z,2.35
2022-08-22T16:15:56.927Z,1.70
2022-08-22T16:18:43.782Z,2.17
2022-08-22T16:21:14.201Z,2.20
2022-08-22T16:24:01.249Z,2.30
2022-08-22T16:26:38.154Z,2.03
2022-08-22T16:29:07.655Z,2.22
2022-08-22T16:31:38.764Z,2.20
2022-08-22T16:34:24.333Z,2.35
2022-08-22T16:37:18.080Z,1.90
2022-08-22T16:39:47.959Z,2.03
2022-08-22T16:42:24.073Z,1.70
2022-08-22T16:44:52.724Z,2.17
2022-08-22T16:47:21.846Z,2.38
2022-08-22T16:49:58.384Z,1.88
2022-08-22T16:52:45.100Z,2.65
2022-08-22T16:55:27.773Z,2.35
2022-08-22T16:58:06.381Z,2.00
2022-08-22T17:00:39.435Z,2.00
2022-08-22T17:03:12.077Z,1.52
2022-08-22T17:05:45.966Z,1.95
2022-08-22T17:08:19.189Z,1.70
2022-08-22T17:10:52.525Z,1.83
2022-08-22T17:13:36.819Z,1.83
2022-08-22T17:16:15.752Z,1.83
2022-08-22T17:18:51.130Z,1.83
2022-08-22T17:21:25.819Z,2.20
2022-08-22T17:24:00.086Z,2.10
2022-08-22T17:26:32.318Z,2.30
2022-08-22T17:29:05.741Z,2.10
2022-08-22T17:31:37.465Z,1.65
2022-08-22T17:34:18.231Z,1.95
2022-08-22T17:36:53.679Z,2.60
2022-08-22T17:39:29.583Z,2.42
2022-08-22T17:42:02.163Z,2.08
2022-08-22T17:44:34.176Z,1.83
2022-08-22T17:47:07.139Z,1.97
2022-08-22T17:52:08.467Z,2.03
2022-08-22T17:54:40.390Z,2.08
2022-08-22T17:57:10.545Z,2.17
2022-08-22T17:59:46.197Z,2.03
2022-08-22T18:02:19.123Z,2.20
2022-08-22T18:07:24.715Z,1.92
2022-08-22T18:09:54.850Z,1.95
2022-08-22T18:12:25.297Z,2.25
2022-08-22T18:14:56.569Z,1.92
2022-08-22T18:17:29.263Z,2.58
2022-08-22T18:20:03.502Z,2.30
2022-08-22T18:22:34.005Z,2.58
2022-08-22T18:25:04.628Z,2.45
2022-08-22T18:27:35.793Z,2.30
2022-08-22T18:30:07.867Z,1.83
2022-08-22T18:32:38.232Z,1.98
2022-08-22T18:35:10.049Z,2.53
2022-08-22T18:37:44.019Z,2.00
2022-08-22T18:40:14.652Z,2.22
2022-08-22T18:42:44.763Z,3.05
2022-08-22T18:45:17.005Z,2.55
2022-08-22T18:47:54.410Z,3.00
2022-08-22T18:50:30.303Z,2.05
2022-08-22T18:52:59.381Z,2.92
2022-08-22T18:55:32.375Z,2.35
2022-08-22T18:58:10.399Z,2.13
2022-08-22T19:00:49.532Z,2.58
2022-08-22T19:03:27.939Z,2.35
2022-08-22T19:06:14.175Z,2.05
2022-08-22T19:08:58.572Z,2.55
2022-08-22T19:11:36.477Z,2.20
2022-08-22T19:14:12.147Z,2.22
2022-08-22T19:16:50.552Z,2.55
2022-08-22T19:19:21.501Z,2.33
2022-08-22T19:22:21.845Z,3.35
2022-08-22T19:25:09.168Z,3.25
2022-08-22T19:27:39.741Z,1.98
2022-08-22T19:30:08.824Z,1.92
2022-08-22T19:32:55.526Z,2.42
2022-08-22T19:35:26.683Z,2.17
2022-08-22T19:37:56.121Z,2.75
2022-08-22T19:40:42.745Z,2.40
2022-08-22T19:43:20.036Z,2.13
2022-08-22T19:45:47.845Z,2.42
2022-08-22T19:48:17.208Z,2.90
2022-08-22T19:50:46.550Z,2.47
2022-08-22T19:53:28.797Z,2.25
2022-08-22T19:56:03.280Z,2.20
2022-08-22T19:58:36.161Z,2.53
2022-08-22T20:01:25.102Z,2.35
2022-08-22T20:03:55.104Z,2.35
2022-08-22T20:06:43.645Z,2.05
2022-08-22T20:09:17.796Z,2.10
2022-08-22T20:11:48.723Z,2.40
2022-08-22T20:14:29.985Z,2.47
2022-08-22T20:17:00.227Z,2.05
2022-08-22T20:19:37.182Z,2.10
2022-08-22T20:22:10.925Z,2.15
2022-08-22T20:24:42.134Z,2.90
2022-08-22T20:27:15.375Z,2.88
2022-08-22T20:29:46.160Z,2.65
2022-08-22T20:32:15.913Z,2.78
2022-08-22T20:34:44.197Z,2.25
2022-08-22T20:37:45.472Z,2.10
2022-08-22T20:40:22.995Z,2.78
2022-08-22T20:43:03.366Z,2.13
2022-08-22T20:45:41.334Z,2.65
2022-08-22T20:48:10.031Z,3.63
2022-08-22T20:50:38.025Z,2.60
2022-08-22T20:53:09.652Z,2.40
2022-08-22T20:55:37.977Z,2.45
2022-08-22T20:58:07.721Z,2.15
2022-08-22T21:00:37.290Z,2.67
2022-08-22T21:03:07.826Z,2.53
2022-08-22T21:05:39.625Z,2.63
2022-08-22T21:08:12.172Z,2.22
2022-08-22T21:10:58.725Z,2.85
2022-08-22T21:13:27.381Z,2.50
2022-08-22T21:15:56.208Z,3.30
2022-08-22T21:18:26.502Z,2.92
2022-08-22T21:20:54.465Z,2.17
2022-08-22T21:23:23.981Z,2.50
2022-08-22T21:25:54.731Z,2.40
2022-08-22T21:28:32.835Z,2.78
2022-08-22T21:31:01.718Z,3.15
2022-08-22T21:33:29.973Z,2.38
2022-08-22T21:35:58.886Z,2.45
2022-08-22T21:38:28.849Z,2.28
2022-08-22T21:41:01.742Z,2.47
2022-08-22T21:43:32.413Z,2.50
2022-08-22T21:46:00.263Z,3.33
2022-08-22T21:48:32.169Z,2.40
2022-08-22T21:51:14.857Z,2.65
2022-08-22T21:53:44.206Z,2.75
2022-08-22T21:56:14.124Z,2.97
2022-08-22T21:58:42.567Z,2.63
2022-08-22T22:01:30.205Z,2.60
2022-08-22T22:03:58.890Z,3.42
2022-08-22T22:06:27.172Z,2.92
2022-08-22T22:08:56.804Z,3.13
2022-08-22T22:11:24.823Z,2.83
2022-08-22T22:13:52.894Z,3.08
2022-08-22T22:16:23.878Z,2.60
2022-08-22T22:18:52.252Z,3.40
2022-08-22T22:21:20.316Z,2.85
2022-08-22T22:23:50.751Z,2.95
2022-08-22T22:26:21.199Z,2.88
2022-08-22T22:28:50.159Z,2.88
2022-08-22T22:31:18.307Z,3.80
2022-08-22T22:33:46.655Z,2.72
2022-08-22T22:36:16.607Z,3.35
2022-08-22T22:38:44.671Z,3.88
2022-08-22T22:41:12.928Z,2.90
2022-08-22T22:43:42.269Z,2.92
2022-08-22T22:46:10.291Z,2.80
2022-08-22T22:48:38.093Z,3.85
2022-08-22T22:51:07.959Z,2.70
2022-08-22T22:53:38.495Z,3.40
2022-08-22T22:56:09.579Z,3.00
2022-08-22T22:58:37.988Z,3.20
2022-08-22T23:01:09.472Z,2.92
2022-08-22T23:03:37.312Z,4.03
2022-08-22T23:06:05.547Z,4.20
2022-08-22T23:08:33.910Z,3.25
2022-08-22T23:11:01.693Z,3.50
2022-08-22T23:13:29.697Z,3.97
2022-08-22T23:18:32.165Z,3.17
2022-08-22T23:21:09.761Z,3.50
2022-08-22T23:23:37.518Z,3.45
2022-08-22T23:26:05.468Z,4.07
2022-08-22T23:28:33.577Z,4.45
2022-08-22T23:31:09.535Z,4.00
2022-08-22T23:33:39.213Z,4.88
2022-08-22T23:36:10.806Z,4.25
2022-08-22T23:38:38.608Z,4.82
2022-08-22T23:41:09.811Z,3.72
2022-08-22T23:43:38.599Z,4.25
2022-08-22T23:46:06.417Z,3.95
2022-08-22T23:48:34.223Z,3.95
2022-08-22T23:51:03.588Z,4.20
2022-08-22T23:53:31.738Z,3.63
2022-08-22T23:56:09.634Z,3.65
2022-08-22T23:58:48.997Z,4.30
